createdAt,value
2019-05-25T00:00:10.866Z,95297
2019-05-25T00:01:20.459Z,95295
2019-05-25T00:02:29.938Z,95294
2019-05-25T00:03:39.456Z,95293
2019-05-25T00:04:49.011Z,95294
2019-05-25T00:05:58.554Z,95289
2019-05-25T00:07:08.109Z,95290
2019-05-25T00:08:17.642Z,95292
2019-05-25T00:09:27.128Z,95286
2019-05-25T00:10:36.720Z,95288
2019-05-25T00:11:46.229Z,95285
2019-05-25T00:12:55.763Z,95282
2019-05-25T00:14:05.291Z,95282
2019-05-25T00:15:14.847Z,95279
2019-05-25T00:16:24.367Z,95280
2019-05-25T00:17:33.908Z,95280
2019-05-25T00:18:43.437Z,95280
2019-05-25T00:19:52.990Z,95285
2019-05-25T00:21:02.525Z,95285
2019-05-25T00:22:12.039Z,95284
2019-05-25T00:23:21.553Z,95286
2019-05-25T00:24:31.065Z,95285
2019-05-25T00:25:40.626Z,95279
2019-05-25T00:26:50.177Z,95281
2019-05-25T00:27:59.718Z,95283
2019-05-25T00:29:09.241Z,95279
2019-05-25T00:30:18.788Z,95279
2019-05-25T00:31:28.304Z,95276
2019-05-25T00:32:37.844Z,95279
2019-05-25T00:33:47.363Z,95274
2019-05-25T00:34:56.924Z,95277
2019-05-25T00:36:06.451Z,95276
2019-05-25T00:37:15.972Z,95274
2019-05-25T00:38:26.530Z,95275
2019-05-25T00:39:37.052Z,95277
2019-05-25T00:40:46.600Z,95279
2019-05-25T00:41:56.141Z,95277
2019-05-25T00:43:05.677Z,95277
2019-05-25T00:44:16.210Z,95276
2019-05-25T00:45:25.762Z,95276
2019-05-25T00:46:36.286Z,95276
2019-05-25T00:47:45.817Z,95282
2019-05-25T00:48:55.350Z,95281
2019-05-25T00:50:04.909Z,95281
2019-05-25T00:51:14.443Z,95280
2019-05-25T00:52:23.959Z,95280
2019-05-25T00:53:33.522Z,95278
2019-05-25T00:54:43.037Z,95279
2019-05-25T00:55:52.602Z,95277
2019-05-25T00:57:02.125Z,95281
2019-05-25T00:58:11.644Z,95275
2019-05-25T00:59:21.181Z,95278
2019-05-25T01:00:30.736Z,95276
2019-05-25T01:01:40.274Z,95275
2019-05-25T01:02:49.823Z,95275
2019-05-25T01:03:59.347Z,95274
2019-05-25T01:05:08.949Z,95275
2019-05-25T01:06:18.463Z,95273
2019-05-25T01:07:27.979Z,95270
2019-05-25T01:08:37.526Z,95273
2019-05-25T01:09:47.046Z,95274
2019-05-25T01:10:57.572Z,95271
2019-05-25T01:12:07.101Z,95274
2019-05-25T01:13:16.635Z,95274
2019-05-25T01:14:26.156Z,95275
2019-05-25T01:15:35.709Z,95275
2019-05-25T01:16:45.302Z,95270
2019-05-25T01:17:54.811Z,95274
2019-05-25T01:19:04.351Z,95271
2019-05-25T01:20:13.872Z,95271
2019-05-25T01:21:23.532Z,95271
2019-05-25T01:22:33.067Z,95269
2019-05-25T01:23:42.587Z,95271
2019-05-25T01:24:52.114Z,95274
2019-05-25T01:26:01.673Z,95271
2019-05-25T01:27:11.191Z,95271
2019-05-25T01:28:20.724Z,95269
2019-05-25T01:29:30.246Z,95274
2019-05-25T01:30:39.881Z,95268
2019-05-25T01:31:49.353Z,95269
2019-05-25T01:32:58.897Z,95272
2019-05-25T01:34:08.434Z,95270
2019-05-25T01:35:17.957Z,95271
2019-05-25T01:36:27.518Z,95271
2019-05-25T01:37:37.052Z,95274
2019-05-25T01:38:46.576Z,95276
2019-05-25T01:39:56.161Z,95274
2019-05-25T01:41:05.709Z,95279
2019-05-25T01:42:15.260Z,95275
2019-05-25T01:43:24.843Z,95276
2019-05-25T01:44:34.378Z,95277
2019-05-25T01:45:43.950Z,95273
2019-05-25T01:46:53.519Z,95274
2019-05-25T01:48:03.055Z,95270
2019-05-25T01:49:12.592Z,95266
2019-05-25T01:50:22.132Z,95270
2019-05-25T01:51:31.700Z,95275
2019-05-25T01:52:41.235Z,95275
2019-05-25T01:53:50.759Z,95271
2019-05-25T01:55:00.571Z,95272
2019-05-25T01:56:09.834Z,95273
2019-05-25T01:57:19.359Z,95270
2019-05-25T01:58:28.919Z,95272
2019-05-25T01:59:38.447Z,95275
2019-05-25T02:00:47.994Z,95275
2019-05-25T02:01:57.568Z,95277
2019-05-25T02:03:07.074Z,95277
2019-05-25T02:04:16.590Z,95279
2019-05-25T02:05:26.124Z,95283
2019-05-25T02:06:35.664Z,95278
2019-05-25T02:07:45.192Z,95281
2019-05-25T02:08:54.746Z,95283
2019-05-25T02:10:04.269Z,95282
2019-05-25T02:11:13.816Z,95280
2019-05-25T02:12:23.351Z,95281
2019-05-25T02:13:32.843Z,95278
2019-05-25T02:14:42.374Z,95277
2019-05-25T02:15:51.939Z,95279
2019-05-25T02:17:01.472Z,95279
2019-05-25T02:18:10.991Z,95284
2019-05-25T02:19:20.532Z,95279
2019-05-25T02:20:30.155Z,95280
2019-05-25T02:21:39.637Z,95283
2019-05-25T02:22:49.166Z,95281
2019-05-25T02:23:58.697Z,95279
2019-05-25T02:25:17.450Z,95280
2019-05-25T02:26:18.732Z,95278
2019-05-25T02:27:28.241Z,95282
2019-05-25T02:28:37.766Z,95276
2019-05-25T02:29:47.289Z,95280
2019-05-25T02:30:56.883Z,95275
2019-05-25T02:32:06.464Z,95276
2019-05-25T02:33:15.987Z,95275
2019-05-25T02:34:25.503Z,95276
2019-05-25T02:35:35.030Z,95275
2019-05-25T02:36:44.564Z,95274
2019-05-25T02:37:54.092Z,95280
2019-05-25T02:39:03.636Z,95279
2019-05-25T02:40:13.167Z,95279
2019-05-25T02:41:22.723Z,95280
2019-05-25T02:42:32.241Z,95279
2019-05-25T02:43:41.772Z,95278
2019-05-25T02:44:51.291Z,95277
2019-05-25T02:46:00.804Z,95277
2019-05-25T02:47:10.404Z,95278
2019-05-25T02:48:19.931Z,95272
2019-05-25T02:49:29.448Z,95274
2019-05-25T02:50:38.985Z,95273
2019-05-25T02:51:48.542Z,95274
2019-05-25T02:52:58.070Z,95268
2019-05-25T02:54:07.594Z,95274
2019-05-25T02:55:30.991Z,95272
2019-05-25T02:56:27.627Z,95275
2019-05-25T02:57:37.148Z,95273
2019-05-25T02:58:46.665Z,95277
2019-05-25T02:59:56.186Z,95277
2019-05-25T03:01:06.700Z,95278
2019-05-25T03:02:16.286Z,95276
2019-05-25T03:03:25.817Z,95273
2019-05-25T03:04:35.346Z,95276
2019-05-25T03:05:44.955Z,95277
2019-05-25T03:06:54.448Z,95278
2019-05-25T03:08:03.990Z,95280
2019-05-25T03:09:13.476Z,95286
2019-05-25T03:10:23.012Z,95284
2019-05-25T03:11:32.546Z,95277
2019-05-25T03:12:42.069Z,95282
2019-05-25T03:13:51.578Z,95280
2019-05-25T03:15:01.166Z,95279
2019-05-25T03:16:10.691Z,95278
2019-05-25T03:17:20.273Z,95279
2019-05-25T03:18:29.761Z,95277
2019-05-25T03:19:39.264Z,95276
2019-05-25T03:20:48.776Z,95275
2019-05-25T03:21:58.326Z,95275
2019-05-25T03:23:07.854Z,95280
2019-05-25T03:24:17.370Z,95273
2019-05-25T03:25:26.901Z,95274
2019-05-25T03:26:37.458Z,95272
2019-05-25T03:27:46.982Z,95274
2019-05-25T03:28:56.517Z,95274
2019-05-25T03:30:06.040Z,95276
2019-05-25T03:31:15.555Z,95279
2019-05-25T03:32:25.246Z,95279
2019-05-25T03:33:34.771Z,95278
2019-05-25T03:34:44.268Z,95282
2019-05-25T03:35:53.797Z,95278
2019-05-25T03:37:03.406Z,95281
2019-05-25T03:38:12.889Z,95277
2019-05-25T03:39:22.409Z,95281
2019-05-25T03:40:31.955Z,95285
2019-05-25T03:41:41.533Z,95284
2019-05-25T03:42:51.071Z,95284
2019-05-25T03:44:00.595Z,95284
2019-05-25T03:45:10.335Z,95281
2019-05-25T03:46:20.075Z,95284
2019-05-25T03:47:29.647Z,95283
2019-05-25T03:48:39.217Z,95280
2019-05-25T03:49:48.741Z,95286
2019-05-25T03:50:58.268Z,95287
2019-05-25T03:52:07.820Z,95286
2019-05-25T03:53:17.353Z,95287
2019-05-25T03:54:26.884Z,95290
2019-05-25T03:55:36.429Z,95287
2019-05-25T03:56:45.949Z,95290
2019-05-25T03:57:55.465Z,95288
2019-05-25T03:59:05.002Z,95290
2019-05-25T04:00:14.531Z,95287
2019-05-25T04:01:24.057Z,95283
2019-05-25T04:02:33.614Z,95283
2019-05-25T04:03:43.204Z,95282
2019-05-25T04:04:52.692Z,95282
2019-05-25T04:06:02.215Z,95283
2019-05-25T04:07:11.770Z,95285
2019-05-25T04:08:21.298Z,95286
2019-05-25T04:09:30.795Z,95285
2019-05-25T04:10:40.331Z,95283
2019-05-25T04:11:49.970Z,95290
2019-05-25T04:12:59.504Z,95293
2019-05-25T04:14:09.009Z,95292
2019-05-25T04:15:18.535Z,95292
2019-05-25T04:16:28.066Z,95289
2019-05-25T04:17:37.617Z,95291
2019-05-25T04:18:47.138Z,95286
2019-05-25T04:19:56.668Z,95287
2019-05-25T04:21:06.203Z,95288
2019-05-25T04:22:15.749Z,95290
2019-05-25T04:23:25.291Z,95295
2019-05-25T04:24:34.806Z,95295
2019-05-25T04:25:44.334Z,95295
2019-05-25T04:26:53.917Z,95301
2019-05-25T04:28:03.463Z,95299
2019-05-25T04:29:13.004Z,95305
2019-05-25T04:30:22.522Z,95305
2019-05-25T04:31:32.050Z,95306
2019-05-25T04:32:41.607Z,95310
2019-05-25T04:33:51.146Z,95310
2019-05-25T04:35:00.653Z,95311
2019-05-25T04:36:10.190Z,95310
2019-05-25T04:37:19.759Z,95312
2019-05-25T04:38:29.294Z,95310
2019-05-25T04:39:38.818Z,95308
2019-05-25T04:40:48.356Z,95304
2019-05-25T04:41:57.863Z,95309
2019-05-25T04:43:07.455Z,95307
2019-05-25T04:44:16.974Z,95308
2019-05-25T04:45:26.521Z,95306
2019-05-25T04:46:36.052Z,95308
2019-05-25T04:47:45.602Z,95311
2019-05-25T04:48:55.134Z,95309
2019-05-25T04:50:04.659Z,95315
2019-05-25T04:51:14.189Z,95313
2019-05-25T04:52:23.738Z,95314
2019-05-25T04:53:33.261Z,95314
2019-05-25T04:54:42.823Z,95311
2019-05-25T04:55:52.348Z,95319
2019-05-25T04:57:01.919Z,95311
2019-05-25T04:58:11.579Z,95310
2019-05-25T04:59:21.099Z,95312
2019-05-25T05:00:30.630Z,95313
2019-05-25T05:01:40.170Z,95312
2019-05-25T05:02:49.738Z,95313
2019-05-25T05:03:59.253Z,95315
2019-05-25T05:05:08.775Z,95315
2019-05-25T05:06:18.309Z,95316
2019-05-25T05:07:27.845Z,95314
2019-05-25T05:08:37.401Z,95315
2019-05-25T05:09:59.666Z,95318
2019-05-25T05:10:57.446Z,95319
2019-05-25T05:12:06.970Z,95319
2019-05-25T05:13:16.516Z,95321
2019-05-25T05:14:26.030Z,95311
2019-05-25T05:15:35.553Z,95315
2019-05-25T05:16:45.102Z,95313
2019-05-25T05:17:54.673Z,95315
2019-05-25T05:19:04.189Z,95315
2019-05-25T05:20:13.705Z,95316
2019-05-25T05:21:23.225Z,95314
2019-05-25T05:22:32.781Z,95313
2019-05-25T05:23:42.298Z,95317
2019-05-25T05:24:51.823Z,95322
2019-05-25T05:26:01.345Z,95322
2019-05-25T05:27:10.895Z,95320
2019-05-25T05:28:20.439Z,95323
2019-05-25T05:29:29.973Z,95322
2019-05-25T05:30:39.500Z,95321
2019-05-25T05:31:49.005Z,95325
2019-05-25T05:32:58.554Z,95323
2019-05-25T05:34:08.085Z,95327
2019-05-25T05:35:17.613Z,95325
2019-05-25T05:36:27.123Z,95332
2019-05-25T05:37:36.683Z,95331
2019-05-25T05:38:46.182Z,95337
2019-05-25T05:39:55.708Z,95336
2019-05-25T05:41:05.242Z,95336
2019-05-25T05:42:14.755Z,95337
2019-05-25T05:43:24.305Z,95335
2019-05-25T05:44:33.841Z,95343
2019-05-25T05:45:43.358Z,95335
2019-05-25T05:46:52.924Z,95340
2019-05-25T05:48:02.486Z,95335
2019-05-25T05:49:11.994Z,95334
2019-05-25T05:50:21.519Z,95335
2019-05-25T05:51:31.054Z,95332
2019-05-25T05:52:40.578Z,95334
2019-05-25T05:53:50.165Z,95336
2019-05-25T05:54:59.683Z,95335
2019-05-25T05:56:09.203Z,95336
2019-05-25T05:57:18.742Z,95339
2019-05-25T05:58:28.298Z,95338
2019-05-25T05:59:37.822Z,95337
2019-05-25T06:00:47.356Z,95339
2019-05-25T06:01:56.867Z,95339
2019-05-25T06:03:06.520Z,95346
2019-05-25T06:04:16.063Z,95341
2019-05-25T06:05:25.590Z,95339
2019-05-25T06:06:35.108Z,95342
2019-05-25T06:07:44.642Z,95339
2019-05-25T06:08:54.181Z,95335
2019-05-25T06:10:03.737Z,95338
2019-05-25T06:11:13.270Z,95338
2019-05-25T06:12:22.770Z,95340
2019-05-25T06:13:32.366Z,95340
2019-05-25T06:14:41.912Z,95339
2019-05-25T06:15:51.452Z,95338
2019-05-25T06:17:00.969Z,95338
2019-05-25T06:18:10.506Z,95337
2019-05-25T06:19:20.069Z,95341
2019-05-25T06:20:29.616Z,95340
2019-05-25T06:21:39.127Z,95341
2019-05-25T06:22:48.686Z,95340
2019-05-25T06:23:59.227Z,95337
2019-05-25T06:25:08.786Z,95340
2019-05-25T06:26:18.337Z,95334
2019-05-25T06:27:28.161Z,95341
2019-05-25T06:28:37.396Z,95337
2019-05-25T06:29:46.950Z,95340
2019-05-25T06:30:56.477Z,95337
2019-05-25T06:32:05.989Z,95341
2019-05-25T06:33:15.519Z,95339
2019-05-25T06:34:25.078Z,95336
2019-05-25T06:35:34.603Z,95339
2019-05-25T06:36:44.144Z,95339
2019-05-25T06:37:53.656Z,95335
2019-05-25T06:39:03.200Z,95336
2019-05-25T06:40:12.753Z,95340
2019-05-25T06:41:22.385Z,95340
2019-05-25T06:42:31.896Z,95338
2019-05-25T06:43:41.462Z,95344
2019-05-25T06:44:51.048Z,95346
2019-05-25T06:46:00.570Z,95349
2019-05-25T06:47:10.109Z,95357
2019-05-25T06:48:19.648Z,95357
2019-05-25T06:49:29.223Z,95362
2019-05-25T06:50:38.937Z,95355
2019-05-25T06:51:48.474Z,95358
2019-05-25T06:52:58.296Z,95361
2019-05-25T06:54:07.555Z,95367
2019-05-25T06:55:17.101Z,95367
2019-05-25T06:56:26.796Z,95366
2019-05-25T06:57:42.871Z,95370
2019-05-25T06:58:46.924Z,95360
2019-05-25T06:59:56.442Z,95364
2019-05-25T07:01:06.036Z,95371
2019-05-25T07:02:15.535Z,95365
2019-05-25T07:03:26.039Z,95362
2019-05-25T07:04:35.594Z,95365
2019-05-25T07:05:45.128Z,95370
2019-05-25T07:06:54.638Z,95366
2019-05-25T07:08:04.222Z,95367
2019-05-25T07:09:14.849Z,95367
2019-05-25T07:10:24.355Z,95372
2019-05-25T07:11:33.921Z,95373
2019-05-25T07:12:43.450Z,95373
2019-05-25T07:13:52.993Z,95369
2019-05-25T07:15:02.526Z,95371
2019-05-25T07:16:12.061Z,95370
2019-05-25T07:17:21.628Z,95373
2019-05-25T07:18:31.149Z,95370
2019-05-25T07:19:40.778Z,95367
2019-05-25T07:20:50.354Z,95371
2019-05-25T07:21:59.881Z,95375
2019-05-25T07:23:09.447Z,95372
2019-05-25T07:24:19.027Z,95373
2019-05-25T07:25:28.582Z,95378
2019-05-25T07:26:38.201Z,95379
2019-05-25T07:27:58.547Z,95381
2019-05-25T07:28:58.433Z,95376
2019-05-25T07:30:07.936Z,95378
2019-05-25T07:31:17.488Z,95376
2019-05-25T07:32:27.065Z,95382
2019-05-25T07:33:36.590Z,95379
2019-05-25T07:34:47.163Z,95387
2019-05-25T07:35:56.730Z,95382
2019-05-25T07:37:07.282Z,95383
2019-05-25T07:38:16.851Z,95382
2019-05-25T07:39:26.373Z,95378
2019-05-25T07:40:35.883Z,95383
2019-05-25T07:41:45.457Z,95385
2019-05-25T07:42:55.023Z,95383
2019-05-25T07:44:04.547Z,95381
2019-05-25T07:45:14.063Z,95389
2019-05-25T07:46:23.699Z,95388
2019-05-25T07:47:33.291Z,95385
2019-05-25T07:48:42.832Z,95386
2019-05-25T07:49:53.385Z,95386
2019-05-25T07:51:02.904Z,95389
2019-05-25T07:52:12.458Z,95390
2019-05-25T07:53:22.000Z,95391
2019-05-25T07:54:31.533Z,95394
2019-05-25T07:55:41.070Z,95393
2019-05-25T07:56:50.610Z,95393
2019-05-25T07:58:15.532Z,95397
2019-05-25T07:59:10.683Z,95395
2019-05-25T08:00:20.286Z,95397
2019-05-25T08:01:29.796Z,95401
2019-05-25T08:02:39.392Z,95397
2019-05-25T08:03:48.945Z,95401
2019-05-25T08:04:58.462Z,95405
2019-05-25T08:06:07.983Z,95403
2019-05-25T08:07:17.561Z,95400
2019-05-25T08:08:27.091Z,95405
2019-05-25T08:09:36.604Z,95406
2019-05-25T08:10:46.138Z,95407
2019-05-25T08:11:55.678Z,95407
2019-05-25T08:13:05.194Z,95403
2019-05-25T08:14:14.716Z,95405
2019-05-25T08:15:24.240Z,95403
2019-05-25T08:16:33.756Z,95402
2019-05-25T08:17:43.290Z,95404
2019-05-25T08:18:52.828Z,95406
2019-05-25T08:20:02.339Z,95402
2019-05-25T08:21:11.863Z,95405
2019-05-25T08:22:21.400Z,95404
2019-05-25T08:23:30.930Z,95406
2019-05-25T08:24:40.480Z,95405
2019-05-25T08:25:49.985Z,95404
2019-05-25T08:26:59.516Z,95406
2019-05-25T08:28:09.046Z,95402
2019-05-25T08:29:18.560Z,95401
2019-05-25T08:30:28.069Z,95408
2019-05-25T08:31:37.585Z,95405
2019-05-25T08:32:47.136Z,95410
2019-05-25T08:33:56.656Z,95410
2019-05-25T08:35:06.171Z,95407
2019-05-25T08:36:15.678Z,95407
2019-05-25T08:37:25.224Z,95409
2019-05-25T08:38:34.751Z,95410
2019-05-25T08:39:44.270Z,95411
2019-05-25T08:40:53.796Z,95409
2019-05-25T08:42:03.342Z,95411
2019-05-25T08:43:12.864Z,95414
2019-05-25T08:44:22.393Z,95413
2019-05-25T08:45:31.886Z,95412
2019-05-25T08:46:41.411Z,95410
2019-05-25T08:47:50.982Z,95409
2019-05-25T08:49:00.493Z,95412
2019-05-25T08:50:10.013Z,95410
2019-05-25T08:51:19.530Z,95409
2019-05-25T08:52:29.088Z,95411
2019-05-25T08:53:41.724Z,95411
2019-05-25T08:54:49.086Z,95407
2019-05-25T08:55:59.604Z,95409
2019-05-25T08:57:09.194Z,95407
2019-05-25T08:58:19.689Z,95410
2019-05-25T08:59:29.194Z,95413
2019-05-25T09:00:38.721Z,95412
2019-05-25T09:01:48.397Z,95408
2019-05-25T09:02:57.812Z,95410
2019-05-25T09:04:07.327Z,95407
2019-05-25T09:05:16.944Z,95409
2019-05-25T09:06:26.374Z,95408
2019-05-25T09:07:35.933Z,95409
2019-05-25T09:08:45.476Z,95407
2019-05-25T09:09:54.993Z,95413
2019-05-25T09:11:04.506Z,95413
2019-05-25T09:12:14.119Z,95416
2019-05-25T09:13:23.682Z,95412
2019-05-25T09:14:33.231Z,95418
2019-05-25T09:15:42.726Z,95414
2019-05-25T09:16:52.239Z,95412
2019-05-25T09:18:01.817Z,95418
2019-05-25T09:19:11.339Z,95417
2019-05-25T09:20:20.906Z,95419
2019-05-25T09:21:33.190Z,95418
2019-05-25T09:22:42.839Z,95420
2019-05-25T09:23:52.331Z,95415
2019-05-25T09:25:01.936Z,95417
2019-05-25T09:26:13.417Z,95417
2019-05-25T09:27:21.007Z,95420
2019-05-25T09:28:30.563Z,95416
2019-05-25T09:29:40.086Z,95415
2019-05-25T09:30:49.600Z,95417
2019-05-25T09:31:59.152Z,95413
2019-05-25T09:33:09.701Z,95413
2019-05-25T09:34:19.234Z,95415
2019-05-25T09:35:28.748Z,95414
2019-05-25T09:36:38.288Z,95412
2019-05-25T09:37:47.829Z,95413
2019-05-25T09:38:57.419Z,95416
2019-05-25T09:40:07.040Z,95420
2019-05-25T09:41:16.573Z,95414
2019-05-25T09:42:26.083Z,95414
2019-05-25T09:43:35.749Z,95415
2019-05-25T09:44:45.289Z,95415
2019-05-25T09:45:54.814Z,95415
2019-05-25T09:47:05.326Z,95414
2019-05-25T09:48:14.865Z,95408
2019-05-25T09:49:24.387Z,95409
2019-05-25T09:50:33.938Z,95409
2019-05-25T09:51:43.458Z,95406
2019-05-25T09:52:53.066Z,95410
2019-05-25T09:54:02.605Z,95405
2019-05-25T09:55:12.150Z,95409
2019-05-25T09:56:21.690Z,95406
2019-05-25T09:57:31.258Z,95403
2019-05-25T09:58:41.847Z,95410
2019-05-25T09:59:51.373Z,95403
2019-05-25T10:01:00.905Z,95404
2019-05-25T10:02:10.426Z,95399
2019-05-25T10:03:20.001Z,95405
2019-05-25T10:04:29.554Z,95399
2019-05-25T10:05:39.160Z,95402
2019-05-25T10:06:48.678Z,95405
2019-05-25T10:07:58.272Z,95403
2019-05-25T10:09:07.831Z,95403
2019-05-25T10:10:17.435Z,95403
2019-05-25T10:11:26.989Z,95403
2019-05-25T10:12:36.547Z,95398
2019-05-25T10:13:46.142Z,95400
2019-05-25T10:14:55.629Z,95401
2019-05-25T10:16:05.169Z,95400
2019-05-25T10:17:14.674Z,95402
2019-05-25T10:18:24.372Z,95402
2019-05-25T10:19:33.886Z,95406
2019-05-25T10:20:43.464Z,95402
2019-05-25T10:21:53.043Z,95400
2019-05-25T10:23:02.549Z,95399
2019-05-25T10:24:12.092Z,95398
2019-05-25T10:25:21.597Z,95402
2019-05-25T10:26:31.147Z,95404
2019-05-25T10:27:41.646Z,95402
2019-05-25T10:28:51.194Z,95403
2019-05-25T10:30:00.748Z,95399
2019-05-25T10:31:10.287Z,95394
2019-05-25T10:32:19.825Z,95397
2019-05-25T10:33:29.334Z,95399
2019-05-25T10:34:38.935Z,95391
2019-05-25T10:35:48.454Z,95395
2019-05-25T10:36:57.969Z,95389
2019-05-25T10:38:07.500Z,95401
2019-05-25T10:39:17.077Z,95393
2019-05-25T10:40:27.615Z,95395
2019-05-25T10:41:37.135Z,95391
2019-05-25T10:42:46.661Z,95392
2019-05-25T10:43:56.202Z,95396
2019-05-25T10:45:05.754Z,95394
2019-05-25T10:46:15.282Z,95395
2019-05-25T10:47:24.810Z,95390
2019-05-25T10:48:34.352Z,95391
2019-05-25T10:49:43.893Z,95387
2019-05-25T10:50:53.422Z,95389
2019-05-25T10:52:02.961Z,95388
2019-05-25T10:53:12.489Z,95384
2019-05-25T10:54:22.043Z,95383
2019-05-25T10:55:31.557Z,95380
2019-05-25T10:56:41.105Z,95383
2019-05-25T10:57:50.609Z,95375
2019-05-25T10:59:00.143Z,95375
2019-05-25T11:00:09.694Z,95375
2019-05-25T11:01:19.225Z,95377
2019-05-25T11:02:28.749Z,95376
2019-05-25T11:03:38.286Z,95377
2019-05-25T11:04:47.872Z,95373
2019-05-25T11:05:57.400Z,95372
2019-05-25T11:07:06.951Z,95370
2019-05-25T11:08:16.499Z,95371
2019-05-25T11:09:26.013Z,95368
2019-05-25T11:10:35.567Z,95366
2019-05-25T11:11:45.100Z,95366
2019-05-25T11:12:54.631Z,95364
2019-05-25T11:14:04.163Z,95365
2019-05-25T11:15:13.717Z,95364
2019-05-25T11:16:23.358Z,95369
2019-05-25T11:17:32.873Z,95364
2019-05-25T11:18:42.478Z,95364
2019-05-25T11:19:52.056Z,95360
2019-05-25T11:21:01.717Z,95364
2019-05-25T11:22:11.267Z,95358
2019-05-25T11:23:20.813Z,95366
2019-05-25T11:24:30.314Z,95361
2019-05-25T11:25:39.932Z,95360
2019-05-25T11:26:49.470Z,95357
2019-05-25T11:27:59.090Z,95356
2019-05-25T11:29:09.684Z,95357
2019-05-25T11:30:19.277Z,95359
2019-05-25T11:31:28.857Z,95356
2019-05-25T11:32:38.387Z,95354
2019-05-25T11:33:47.919Z,95355
2019-05-25T11:34:57.538Z,95356
2019-05-25T11:36:07.150Z,95356
2019-05-25T11:37:16.894Z,95348
2019-05-25T11:38:26.394Z,95349
2019-05-25T11:39:35.976Z,95355
2019-05-25T11:40:45.576Z,95354
2019-05-25T11:41:55.090Z,95350
2019-05-25T11:43:04.671Z,95347
2019-05-25T11:44:14.185Z,95347
2019-05-25T11:45:23.745Z,95347
2019-05-25T11:46:33.310Z,95349
2019-05-25T11:47:42.849Z,95344
2019-05-25T11:48:52.365Z,95342
2019-05-25T11:50:01.931Z,95345
2019-05-25T11:51:11.517Z,95352
2019-05-25T11:52:21.029Z,95349
2019-05-25T11:53:30.535Z,95350
2019-05-25T11:54:40.108Z,95348
2019-05-25T11:55:49.676Z,95343
2019-05-25T11:56:59.308Z,95346
2019-05-25T11:58:08.825Z,95350
2019-05-25T11:59:18.358Z,95348
2019-05-25T12:00:27.909Z,95344
2019-05-25T12:01:37.497Z,95347
2019-05-25T12:02:47.012Z,95349
2019-05-25T12:03:56.570Z,95344
2019-05-25T12:05:06.044Z,95343
2019-05-25T12:06:15.623Z,95344
2019-05-25T12:07:25.158Z,95339
2019-05-25T12:08:34.670Z,95337
2019-05-25T12:09:44.188Z,95338
2019-05-25T12:10:54.361Z,95336
2019-05-25T12:12:03.905Z,95336
2019-05-25T12:13:13.472Z,95336
2019-05-25T12:14:22.987Z,95340
2019-05-25T12:15:32.525Z,95331
2019-05-25T12:16:42.109Z,95331
2019-05-25T12:17:51.636Z,95330
2019-05-25T12:19:01.219Z,95330
2019-05-25T12:20:10.754Z,95326
2019-05-25T12:21:20.323Z,95325
2019-05-25T12:22:29.850Z,95326
2019-05-25T12:23:39.350Z,95323
2019-05-25T12:24:48.867Z,95328
2019-05-25T12:25:58.400Z,95327
2019-05-25T12:27:08.067Z,95333
2019-05-25T12:28:17.559Z,95328
2019-05-25T12:29:27.099Z,95337
2019-05-25T12:30:40.600Z,95333
2019-05-25T12:31:46.211Z,95333
2019-05-25T12:32:56.851Z,95333
2019-05-25T12:34:06.407Z,95328
2019-05-25T12:35:16.031Z,95331
2019-05-25T12:36:25.597Z,95329
2019-05-25T12:37:35.129Z,95328
2019-05-25T12:38:44.703Z,95322
2019-05-25T12:39:54.249Z,95325
2019-05-25T12:41:03.838Z,95325
2019-05-25T12:42:13.430Z,95329
2019-05-25T12:43:22.986Z,95326
2019-05-25T12:44:34.432Z,95329
2019-05-25T12:45:42.425Z,95328
2019-05-25T12:46:51.735Z,95326
2019-05-25T12:48:01.253Z,95316
2019-05-25T12:49:10.812Z,95318
2019-05-25T12:50:20.370Z,95321
2019-05-25T12:51:29.887Z,95313
2019-05-25T12:52:39.537Z,95315
2019-05-25T12:53:49.060Z,95312
2019-05-25T12:54:57.638Z,95313
2019-05-25T12:56:07.151Z,95312
2019-05-25T12:57:16.749Z,95312
2019-05-25T12:58:27.269Z,95315
2019-05-25T12:59:36.826Z,95317
2019-05-25T13:00:55.472Z,95322
2019-05-25T13:01:57.014Z,95316
2019-05-25T13:03:06.746Z,95322
2019-05-25T13:04:16.172Z,95321
2019-05-25T13:05:33.961Z,95317
2019-05-25T13:06:36.270Z,95317
2019-05-25T13:07:45.877Z,95322
2019-05-25T13:08:55.438Z,95318
2019-05-25T13:10:05.097Z,95322
2019-05-25T13:11:14.598Z,95323
2019-05-25T13:12:24.163Z,95315
2019-05-25T13:13:33.687Z,95323
2019-05-25T13:14:43.210Z,95316
2019-05-25T13:15:52.753Z,95318
2019-05-25T13:17:02.351Z,95316
2019-05-25T13:18:11.871Z,95316
2019-05-25T13:19:21.397Z,95312
2019-05-25T13:20:30.978Z,95311
2019-05-25T13:21:40.565Z,95316
2019-05-25T13:22:50.112Z,95311
2019-05-25T13:23:59.645Z,95311
2019-05-25T13:25:10.247Z,95311
2019-05-25T13:26:19.757Z,95315
2019-05-25T13:27:29.314Z,95313
2019-05-25T13:28:38.828Z,95319
2019-05-25T13:29:48.390Z,95318
2019-05-25T13:31:10.655Z,95313
2019-05-25T13:32:08.471Z,95316
2019-05-25T13:33:18.005Z,95309
2019-05-25T13:34:27.544Z,95315
2019-05-25T13:35:37.064Z,95312
2019-05-25T13:36:46.596Z,95311
2019-05-25T13:37:57.127Z,95312
2019-05-25T13:39:06.706Z,95311
2019-05-25T13:40:16.220Z,95307
2019-05-25T13:41:25.777Z,95314
2019-05-25T13:42:35.354Z,95314
2019-05-25T13:43:44.914Z,95319
2019-05-25T13:44:54.437Z,95319
2019-05-25T13:46:03.989Z,95318
2019-05-25T13:47:13.520Z,95311
2019-05-25T13:48:23.087Z,95321
2019-05-25T13:49:32.593Z,95315
2019-05-25T13:50:42.155Z,95318
2019-05-25T13:51:51.686Z,95316
2019-05-25T13:53:01.265Z,95317
2019-05-25T13:54:10.779Z,95317
2019-05-25T13:55:20.309Z,95322
2019-05-25T13:56:29.849Z,95319
2019-05-25T13:57:39.381Z,95324
2019-05-25T13:58:48.934Z,95315
2019-05-25T13:59:58.461Z,95316
2019-05-25T14:01:07.990Z,95316
2019-05-25T14:02:18.909Z,95320
2019-05-25T14:03:29.158Z,95323
2019-05-25T14:04:38.727Z,95322
2019-05-25T14:05:48.286Z,95317
2019-05-25T14:06:57.801Z,95319
2019-05-25T14:08:07.460Z,95315
2019-05-25T14:09:16.942Z,95311
2019-05-25T14:10:26.470Z,95314
2019-05-25T14:11:36.015Z,95316
2019-05-25T14:12:45.540Z,95316
2019-05-25T14:13:55.252Z,95309
2019-05-25T14:15:04.823Z,95315
2019-05-25T14:16:14.366Z,95314
2019-05-25T14:17:23.913Z,95309
2019-05-25T14:18:33.474Z,95303
2019-05-25T14:19:43.012Z,95307
2019-05-25T14:20:52.562Z,95307
2019-05-25T14:22:02.086Z,95308
2019-05-25T14:23:11.622Z,95308
2019-05-25T14:24:21.204Z,95311
2019-05-25T14:25:30.740Z,95307
2019-05-25T14:26:40.252Z,95305
2019-05-25T14:27:49.788Z,95303
2019-05-25T14:28:59.514Z,95298
2019-05-25T14:30:09.086Z,95301
2019-05-25T14:31:18.613Z,95302
2019-05-25T14:32:28.162Z,95300
2019-05-25T14:33:37.711Z,95303
2019-05-25T14:34:47.949Z,95305
2019-05-25T14:35:57.579Z,95305
2019-05-25T14:37:07.097Z,95305
2019-05-25T14:38:16.621Z,95301
2019-05-25T14:39:26.206Z,95304
2019-05-25T14:40:35.762Z,95303
2019-05-25T14:41:45.314Z,95300
2019-05-25T14:42:54.869Z,95299
2019-05-25T14:44:04.533Z,95302
2019-05-25T14:45:14.117Z,95303
2019-05-25T14:46:27.662Z,95301
2019-05-25T14:47:33.205Z,95302
2019-05-25T14:48:42.735Z,95303
2019-05-25T14:49:52.315Z,95305
2019-05-25T14:51:03.043Z,95308
2019-05-25T14:52:12.601Z,95311
2019-05-25T14:53:22.116Z,95309
2019-05-25T14:54:31.661Z,95310
2019-05-25T14:55:41.176Z,95314